createdAt,value
2017-06-01T00:00:16.113Z,55.91
2017-06-01T00:01:26.061Z,55.73
2017-06-01T00:02:36.320Z,55.35
2017-06-01T00:03:46.602Z,54.78
2017-06-01T00:04:56.860Z,55.25
2017-06-01T00:06:07.110Z,55.35
2017-06-01T00:07:17.365Z,55.06
2017-06-01T00:08:27.344Z,55.35
2017-06-01T00:09:37.622Z,54.97
2017-06-01T00:10:47.883Z,54.97
2017-06-01T00:11:58.144Z,55.44
2017-06-01T00:13:08.092Z,55.73
2017-06-01T00:14:18.348Z,55.82
2017-06-01T00:15:27.976Z,55.82
2017-06-01T00:16:38.235Z,55.73
2017-06-01T00:17:48.555Z,55.63
2017-06-01T00:19:02.185Z,55.82
2017-06-01T00:20:12.443Z,55.91
2017-06-01T00:21:22.393Z,55.91
2017-06-01T00:22:32.030Z,55.91
2017-06-01T00:23:42.297Z,57.24
2017-06-01T00:24:52.242Z,56.87
2017-06-01T00:26:02.501Z,57.24
2017-06-01T00:27:12.131Z,57.15
2017-06-01T00:28:22.080Z,57.98
2017-06-01T00:29:32.341Z,58.45
2017-06-01T00:30:42.608Z,58.67
2017-06-01T00:31:52.551Z,58.83
2017-06-01T00:33:02.183Z,58.83
2017-06-01T00:34:12.121Z,59.02
2017-06-01T00:35:22.061Z,58.54
2017-06-01T00:36:32.317Z,58.73
2017-06-01T00:37:42.583Z,58.07
2017-06-01T00:38:52.539Z,58.36
2017-06-01T00:40:02.800Z,58.07
2017-06-01T00:41:12.112Z,58.17
2017-06-01T00:42:22.058Z,58.07
2017-06-01T00:43:32.010Z,58.36
2017-06-01T00:44:42.263Z,58.92
2017-06-01T00:45:52.523Z,59.02
2017-06-01T00:47:02.779Z,59.21
2017-06-01T00:48:12.727Z,58.92
2017-06-01T00:49:23.079Z,58.92
2017-06-01T00:50:33.335Z,58.45
2017-06-01T00:51:43.589Z,58.36
2017-06-01T00:52:53.233Z,58.54
2017-06-01T00:54:03.065Z,57.88
2017-06-01T00:55:12.695Z,58.64
2017-06-01T00:56:22.644Z,59.11
2017-06-01T00:57:32.589Z,59.02
2017-06-01T00:58:42.845Z,58.92
2017-06-01T00:59:52.785Z,59.88
2017-06-01T01:01:03.042Z,59.78
2017-06-01T01:02:13.299Z,59.3
2017-06-01T01:03:23.563Z,59.78
2017-06-01T01:04:33.199Z,58.26
2017-06-01T01:05:43.464Z,58.45
2017-06-01T01:06:53.727Z,57.98
2017-06-01T01:08:03.354Z,58.92
2017-06-01T01:09:13.632Z,59.11
2017-06-01T01:10:23.594Z,59.11
2017-06-01T01:11:33.630Z,58.92
2017-06-01T01:12:43.893Z,58.83
2017-06-01T01:13:53.842Z,58.26
2017-06-01T01:15:04.100Z,58.26
2017-06-01T01:16:14.364Z,58.36
2017-06-01T01:17:24.317Z,57.4
2017-06-01T01:18:34.258Z,58.07
2017-06-01T01:19:44.214Z,58.26
2017-06-01T01:20:54.158Z,58.83
2017-06-01T01:22:04.430Z,58.64
2017-06-01T01:23:14.376Z,58.83
2017-06-01T01:24:24.629Z,58.73
2017-06-01T01:25:34.576Z,58.92
2017-06-01T01:26:44.841Z,58.36
2017-06-01T01:27:54.783Z,58.17
2017-06-01T01:29:05.031Z,58.17
2017-06-01T01:30:14.973Z,57.88
2017-06-01T01:31:24.922Z,57.98
2017-06-01T01:32:35.188Z,57.98
2017-06-01T01:33:45.439Z,58.36
2017-06-01T01:34:55.694Z,58.54
2017-06-01T01:36:05.956Z,58.07
2017-06-01T01:37:16.224Z,58.64
2017-06-01T01:38:26.172Z,59.49
2017-06-01T01:39:36.428Z,59.11
2017-06-01T01:40:46.681Z,59.11
2017-06-01T01:41:57.008Z,58.92
2017-06-01T01:43:07.261Z,59.02
2017-06-01T01:44:17.205Z,59.84
2017-06-01T01:45:27.473Z,59.56
2017-06-01T01:46:37.727Z,59.84
2017-06-01T01:47:47.997Z,60.03
2017-06-01T01:48:57.936Z,59.75
2017-06-01T01:50:08.189Z,60.22
2017-06-01T01:51:18.456Z,60.5
2017-06-01T01:52:28.395Z,60.31
2017-06-01T01:53:38.337Z,60.22
2017-06-01T01:54:48.603Z,60.22
2017-06-01T01:55:58.863Z,61.27
2017-06-01T01:57:09.117Z,61.36
2017-06-01T01:58:19.376Z,61.08
2017-06-01T01:59:29.717Z,60.7
2017-06-01T02:00:40.016Z,60.98
2017-06-01T02:01:49.655Z,61.55
2017-06-01T02:02:59.913Z,62.02
2017-06-01T02:04:10.173Z,61.74
2017-06-01T02:05:20.439Z,61.27
2017-06-01T02:06:30.724Z,60.22
2017-06-01T02:07:40.353Z,59.75
2017-06-01T02:08:50.298Z,58.99
2017-06-01T02:09:59.922Z,58.89
2017-06-01T02:11:09.879Z,59.66
2017-06-01T02:12:19.517Z,59.37
2017-06-01T02:13:29.458Z,59.94
2017-06-01T02:14:39.088Z,59.75
2017-06-01T02:15:49.340Z,59.66
2017-06-01T02:16:59.283Z,60.7
2017-06-01T02:18:09.547Z,59.75
2017-06-01T02:19:19.899Z,59.66
2017-06-01T02:20:29.842Z,59.78
2017-06-01T02:21:39.786Z,60.82
2017-06-01T02:22:50.050Z,61.17
2017-06-01T02:24:00.300Z,60.41
2017-06-01T02:25:10.247Z,60.31
2017-06-01T02:26:20.502Z,60.79
2017-06-01T02:27:30.443Z,60.79
2017-06-01T02:28:40.701Z,60.73
2017-06-01T02:29:50.964Z,60.5
2017-06-01T02:31:01.245Z,58.73
2017-06-01T02:32:11.502Z,58.36
2017-06-01T02:33:21.135Z,58.73
2017-06-01T02:34:31.394Z,58.36
2017-06-01T02:35:41.027Z,56.93
2017-06-01T02:36:50.967Z,56.17
2017-06-01T02:38:01.225Z,55.6
2017-06-01T02:39:11.164Z,56.08
2017-06-01T02:40:21.427Z,55.32
2017-06-01T02:41:31.372Z,54.46
2017-06-01T02:42:41.317Z,55.04
2017-06-01T02:43:51.270Z,55.22
2017-06-01T02:45:01.527Z,55.22
2017-06-01T02:46:11.780Z,54.08
2017-06-01T02:47:21.726Z,55.41
2017-06-01T02:48:31.978Z,56.93
2017-06-01T02:49:42.237Z,55.6
2017-06-01T02:50:52.500Z,55.79
2017-06-01T02:52:02.448Z,55.51
2017-06-01T02:53:12.393Z,55.98
2017-06-01T02:54:22.647Z,55.44
2017-06-01T02:55:32.907Z,55.51
2017-06-01T02:56:43.170Z,55.35
2017-06-01T02:57:53.431Z,54.39
2017-06-01T02:59:03.371Z,54.66
2017-06-01T03:00:12.688Z,54.27
2017-06-01T03:01:22.943Z,54.02
2017-06-01T03:02:32.890Z,53.45
2017-06-01T03:03:42.834Z,53.26
2017-06-01T03:04:53.090Z,53.23
2017-06-01T03:06:03.353Z,53.07
2017-06-01T03:07:13.608Z,53.45
2017-06-01T03:08:23.543Z,54.02
2017-06-01T03:09:33.798Z,52.78
2017-06-01T03:10:44.078Z,52.4
2017-06-01T03:11:54.031Z,53.16
2017-06-01T03:13:04.290Z,53.16
2017-06-01T03:14:14.226Z,53.92
2017-06-01T03:15:24.479Z,54.3
2017-06-01T03:16:34.737Z,54.02
2017-06-01T03:17:44.682Z,53.35
2017-06-01T03:18:54.313Z,53.16
2017-06-01T03:20:04.254Z,53.45
2017-06-01T03:21:13.895Z,53.16
2017-06-01T03:22:23.837Z,53.26
2017-06-01T03:23:33.778Z,53.07
2017-06-01T03:24:43.725Z,53.07
2017-06-01T03:25:54.052Z,53.45
2017-06-01T03:27:03.994Z,53.64
2017-06-01T03:28:14.251Z,52.31
2017-06-01T03:29:24.187Z,51.74
2017-06-01T03:30:34.497Z,52.31
2017-06-01T03:31:44.757Z,51.36
2017-06-01T03:32:54.076Z,51.26
2017-06-01T03:34:04.336Z,51.74
2017-06-01T03:35:14.596Z,52.31
2017-06-01T03:36:24.859Z,52.31
2017-06-01T03:37:35.123Z,51.45
2017-06-01T03:38:45.373Z,51.36
2017-06-01T03:39:55.639Z,51.07
2017-06-01T03:41:05.582Z,51.36
2017-06-01T03:42:15.523Z,51.83
2017-06-01T03:43:25.150Z,51.45
2017-06-01T03:44:35.091Z,51.93
2017-06-01T03:45:45.104Z,52.12
2017-06-01T03:46:55.055Z,51.93
2017-06-01T03:48:05.003Z,52.14
2017-06-01T03:49:14.639Z,52.14
2017-06-01T03:50:24.904Z,51.2
2017-06-01T03:51:35.162Z,51.76
2017-06-01T03:52:45.414Z,57.56
2017-06-01T03:53:55.363Z,58.29
2017-06-01T03:55:05.317Z,59.81
2017-06-01T03:56:15.265Z,59.62
2017-06-01T03:57:25.520Z,59.71
2017-06-01T03:58:35.473Z,61.61
2017-06-01T03:59:45.425Z,62.85
2017-06-01T04:00:55.684Z,62.75
2017-06-01T04:02:05.942Z,62.72
2017-06-01T04:03:15.572Z,58.92
2017-06-01T04:04:25.196Z,55.73
2017-06-01T04:05:35.140Z,52.97
2017-06-01T04:06:45.404Z,53.64
2017-06-01T04:07:55.663Z,53.73
2017-06-01T04:09:05.920Z,53.07
2017-06-01T04:10:16.183Z,52.78
2017-06-01T04:11:25.813Z,51.93
2017-06-01T04:12:35.756Z,52.02
2017-06-01T04:13:45.701Z,50.91
2017-06-01T04:14:55.658Z,51.48
2017-06-01T04:16:05.598Z,50.62
2017-06-01T04:17:15.544Z,50.24
2017-06-01T04:18:25.912Z,50.81
2017-06-01T04:19:35.855Z,50.15
2017-06-01T04:20:46.150Z,50.24
2017-06-01T04:21:56.101Z,50.91
2017-06-01T04:23:06.044Z,49.58
2017-06-01T04:24:15.986Z,49.49
2017-06-01T04:25:26.244Z,49.39
2017-06-01T04:26:36.499Z,50.15
2017-06-01T04:27:46.763Z,49.87
2017-06-01T04:28:56.699Z,48.91
2017-06-01T04:30:06.957Z,49.51
2017-06-01T04:31:16.276Z,49.49
2017-06-01T04:32:26.217Z,49.51
2017-06-01T04:33:36.157Z,48.75
2017-06-01T04:34:46.415Z,50.74
2017-06-01T04:35:56.683Z,50.18
2017-06-01T04:37:06.940Z,49.6
2017-06-01T04:38:16.886Z,50.37
2017-06-01T04:39:26.532Z,50.18
2017-06-01T04:40:36.793Z,48.56
2017-06-01T04:41:47.052Z,49.51
2017-06-01T04:42:56.689Z,49.51
2017-06-01T04:44:06.950Z,48.94
2017-06-01T04:45:16.267Z,48.85
2017-06-01T04:46:25.899Z,48.75
2017-06-01T04:47:36.155Z,48.66
2017-06-01T04:48:46.495Z,47.8
2017-06-01T04:49:56.768Z,48.56
2017-06-01T04:51:06.715Z,49.7
2017-06-01T04:52:16.981Z,49.6
2017-06-01T04:53:27.236Z,49.51
2017-06-01T04:54:36.560Z,51.79
2017-06-01T04:55:46.513Z,52.08
2017-06-01T04:56:56.460Z,52.36
2017-06-01T04:58:06.093Z,49.82
2017-06-01T04:59:16.403Z,48.21
2017-06-01T05:00:26.662Z,50.18
2017-06-01T05:01:36.921Z,51.51
2017-06-01T05:02:47.187Z,49.82
2017-06-01T05:03:57.133Z,51.62
2017-06-01T05:05:07.388Z,50.96
2017-06-01T05:06:17.021Z,49.35
2017-06-01T05:07:26.975Z,48.49
2017-06-01T05:08:36.607Z,48.01
2017-06-01T05:09:46.557Z,49.15
2017-06-01T05:10:56.506Z,49.15
2017-06-01T05:12:06.764Z,49.06
2017-06-01T05:13:16.401Z,48.21
2017-06-01T05:14:26.341Z,49.63
2017-06-01T05:15:36.287Z,49.54
2017-06-01T05:16:46.564Z,48.3
2017-06-01T05:17:56.521Z,47.82
2017-06-01T05:19:06.465Z,47.82
2017-06-01T05:20:16.721Z,48.96
2017-06-01T05:21:26.667Z,48.68
2017-06-01T05:22:36.613Z,47.82
2017-06-01T05:23:46.627Z,48.77
2017-06-01T05:24:56.572Z,49.15
2017-06-01T05:26:06.835Z,49.06
2017-06-01T05:27:17.098Z,48.96
2017-06-01T05:28:26.728Z,47.92
2017-06-01T05:29:36.674Z,49.82
2017-06-01T05:30:46.622Z,50.39
2017-06-01T05:31:56.573Z,48.11
2017-06-01T05:33:06.842Z,48.11
2017-06-01T05:34:16.788Z,49.25
2017-06-01T05:35:27.054Z,49.63
2017-06-01T05:36:37.317Z,48.21
2017-06-01T05:37:47.267Z,49.91
2017-06-01T05:38:57.209Z,50.77
2017-06-01T05:40:06.836Z,49.73
2017-06-01T05:41:16.477Z,49.46
2017-06-01T05:42:26.418Z,48.8
2017-06-01T05:43:36.367Z,49.44
2017-06-01T05:44:46.642Z,49.65
2017-06-01T05:45:56.589Z,49.82
2017-06-01T05:47:06.845Z,50.32
2017-06-01T05:48:16.481Z,49.46
2017-06-01T05:49:26.633Z,50.79
2017-06-01T05:50:36.574Z,49.37
2017-06-01T05:51:46.838Z,48.8
2017-06-01T05:52:57.099Z,48.61
2017-06-01T05:54:07.043Z,48.13
2017-06-01T05:55:17.314Z,49.18
2017-06-01T05:56:27.266Z,49.65
2017-06-01T05:57:37.527Z,50.32
2017-06-01T05:58:47.257Z,48.99
2017-06-01T05:59:57.625Z,50.99
2017-06-01T06:01:07.571Z,49.56
2017-06-01T06:02:17.213Z,49.85
2017-06-01T06:03:26.842Z,49.56
2017-06-01T06:04:36.653Z,48.8
2017-06-01T06:05:47.297Z,49.08
2017-06-01T06:06:57.555Z,50.23
2017-06-01T06:08:07.505Z,49.85
2017-06-01T06:09:17.765Z,49.75
2017-06-01T06:10:27.399Z,49.46
2017-06-01T06:11:37.666Z,49.56
2017-06-01T06:12:47.620Z,50.42
2017-06-01T06:13:57.562Z,49.56
2017-06-01T06:15:07.824Z,49.46
2017-06-01T06:16:17.766Z,49.94
2017-06-01T06:17:27.716Z,49.49
2017-06-01T06:18:37.672Z,48.63
2017-06-01T06:19:47.616Z,48.25
2017-06-01T06:20:57.612Z,47.87
2017-06-01T06:22:07.247Z,48.44
2017-06-01T06:23:16.564Z,48.44
2017-06-01T06:24:26.515Z,49.4
2017-06-01T06:25:35.837Z,47.97
2017-06-01T06:26:46.098Z,48.63
2017-06-01T06:27:56.105Z,49.2
2017-06-01T06:29:06.053Z,49.49
2017-06-01T06:30:16.317Z,48.82
2017-06-01T06:31:26.576Z,47.87
2017-06-01T06:32:36.522Z,47.78
2017-06-01T06:33:46.517Z,44.92
2017-06-01T06:34:56.461Z,46.54
2017-06-01T06:36:06.723Z,47.97
2017-06-01T06:37:16.977Z,46.63
2017-06-01T06:38:26.928Z,46.35
2017-06-01T06:39:36.877Z,46.92
2017-06-01T06:40:46.828Z,46.63
2017-06-01T06:41:57.098Z,45.78
2017-06-01T06:43:07.362Z,46.92
2017-06-01T06:44:16.996Z,49.3
2017-06-01T06:45:26.945Z,47.49
2017-06-01T06:46:37.204Z,47.89
2017-06-01T06:47:47.472Z,46.47
2017-06-01T06:48:57.729Z,48.27
2017-06-01T06:50:07.694Z,46.47
2017-06-01T06:51:17.638Z,47.89
2017-06-01T06:52:27.270Z,44.46
2017-06-01T06:53:36.908Z,47.04
2017-06-01T06:54:47.190Z,47.61
2017-06-01T06:55:57.131Z,46.37
2017-06-01T06:57:07.388Z,46.09
2017-06-01T06:58:17.650Z,44.27
2017-06-01T06:59:27.607Z,42.85
2017-06-01T07:00:37.235Z,43.99
2017-06-01T07:01:47.493Z,44.66
2017-06-01T07:02:57.756Z,47.71
2017-06-01T07:04:07.703Z,44.66
2017-06-01T07:05:17.650Z,44.56
2017-06-01T07:06:27.915Z,43.32
2017-06-01T07:07:38.177Z,43.99
2017-06-01T07:08:48.132Z,46.84
2017-06-01T07:09:58.078Z,47.71
2017-06-01T07:11:08.028Z,46.37
2017-06-01T07:12:17.350Z,46.09
2017-06-01T07:13:26.986Z,44.68
2017-06-01T07:14:36.614Z,47.04
2017-06-01T07:15:46.649Z,44.56
2017-06-01T07:16:56.600Z,43.71
2017-06-01T07:18:06.539Z,43.8
2017-06-01T07:19:16.176Z,42.94
2017-06-01T07:20:26.438Z,42.96
2017-06-01T07:21:36.384Z,43.25
2017-06-01T07:22:46.660Z,44.78
2017-06-01T07:23:56.655Z,43.25
2017-06-01T07:25:06.605Z,42.96
2017-06-01T07:26:16.871Z,42.11
2017-06-01T07:27:26.826Z,41.92
2017-06-01T07:28:37.092Z,42.2
2017-06-01T07:29:47.055Z,40.87
2017-06-01T07:30:57.318Z,42.4
2017-06-01T07:32:07.576Z,41.63
2017-06-01T07:33:17.215Z,40.68
2017-06-01T07:34:27.483Z,44.68
2017-06-01T07:35:37.433Z,42.49
2017-06-01T07:36:47.689Z,42.68
2017-06-01T07:37:57.639Z,43.91
2017-06-01T07:39:07.590Z,44.68
2017-06-01T07:40:16.917Z,43.91
2017-06-01T07:41:26.245Z,42.99
2017-06-01T07:42:36.500Z,43.84
2017-06-01T07:43:45.815Z,44.23
2017-06-01T07:44:56.090Z,44.23
2017-06-01T07:46:06.351Z,40.6
2017-06-01T07:47:16.299Z,41.17
2017-06-01T07:48:26.251Z,41.84
2017-06-01T07:49:36.533Z,43.75
2017-06-01T07:50:46.796Z,43.46
2017-06-01T07:51:57.061Z,41.94
2017-06-01T07:53:07.010Z,42.51
2017-06-01T07:54:17.270Z,43.08
2017-06-01T07:55:27.213Z,42.41
2017-06-01T07:56:37.473Z,42.51
2017-06-01T07:57:47.732Z,41.48
2017-06-01T07:58:57.686Z,41.39
2017-06-01T08:00:07.007Z,41.77
2017-06-01T08:01:16.644Z,41.58
2017-06-01T08:02:26.924Z,41
2017-06-01T08:03:36.558Z,41
2017-06-01T08:04:46.513Z,41.58
2017-06-01T08:05:56.779Z,40.63
2017-06-01T08:07:07.048Z,39.48
2017-06-01T08:08:16.998Z,40.34
2017-06-01T08:09:27.261Z,40.72
2017-06-01T08:10:36.896Z,40.05
2017-06-01T08:11:47.166Z,39.76
2017-06-01T08:12:56.831Z,39.59
2017-06-01T08:14:06.784Z,40.36
2017-06-01T08:15:16.737Z,39.5
2017-06-01T08:16:27.006Z,39.5
2017-06-01T08:17:36.955Z,39.4
2017-06-01T08:18:46.902Z,39.59
2017-06-01T08:19:56.914Z,40.55
2017-06-01T08:21:07.179Z,40.26
2017-06-01T08:22:16.810Z,41.03
2017-06-01T08:23:27.071Z,40.45
2017-06-01T08:24:36.708Z,40.64
2017-06-01T08:25:46.655Z,40.26
2017-06-01T08:26:56.602Z,40.17
2017-06-01T08:28:06.250Z,40.26
2017-06-01T08:29:16.203Z,39.69
2017-06-01T08:30:25.836Z,39.88
2017-06-01T08:31:35.211Z,39.69
2017-06-01T08:32:45.472Z,38.64
2017-06-01T08:33:55.433Z,38.35
2017-06-01T08:35:05.702Z,36.66
2017-06-01T08:36:15.656Z,38.66
2017-06-01T08:37:25.295Z,39.32
2017-06-01T08:38:35.562Z,39.14
2017-06-01T08:39:45.576Z,38.47
2017-06-01T08:40:55.836Z,38.47
2017-06-01T08:42:05.474Z,38.47
2017-06-01T08:43:14.801Z,37.32
2017-06-01T08:44:25.066Z,33.89
2017-06-01T08:45:35.014Z,36.08
2017-06-01T08:46:45.281Z,36.77
2017-06-01T08:47:55.547Z,36.48
2017-06-01T08:49:05.813Z,36.96
2017-06-01T08:50:15.142Z,35.91
2017-06-01T08:51:25.402Z,36.1
2017-06-01T08:52:35.664Z,34.38
2017-06-01T08:53:45.617Z,35.43
2017-06-01T08:54:55.888Z,35.24
2017-06-01T08:56:05.838Z,37.63
2017-06-01T08:57:15.789Z,36.77
2017-06-01T08:58:26.053Z,34.01
2017-06-01T08:59:36.007Z,34.86
2017-06-01T09:00:45.962Z,37.17
2017-06-01T09:01:56.224Z,35.35
2017-06-01T09:03:06.180Z,32.87
2017-06-01T09:04:15.830Z,34.78
2017-06-01T09:05:26.091Z,35.64
2017-06-01T09:06:36.038Z,36.41
2017-06-01T09:07:45.673Z,37.28
2017-06-01T09:08:55.626Z,37.48
2017-06-01T09:10:05.902Z,36.04
2017-06-01T09:11:15.852Z,34.51
2017-06-01T09:12:26.129Z,35.37
2017-06-01T09:13:35.769Z,35.37
2017-06-01T09:14:45.724Z,35.37
2017-06-01T09:15:55.992Z,35.28
2017-06-01T09:17:05.943Z,34.14
2017-06-01T09:18:15.891Z,34.05
2017-06-01T09:19:26.151Z,34.83
2017-06-01T09:20:36.109Z,33.01
2017-06-01T09:21:46.376Z,33.87
2017-06-01T09:22:56.019Z,33.78
2017-06-01T09:24:06.279Z,33.11
2017-06-01T09:25:16.544Z,34.06
2017-06-01T09:26:26.188Z,34.26
2017-06-01T09:27:36.145Z,32.46
2017-06-01T09:28:46.416Z,33.4
2017-06-01T09:29:55.741Z,32.44
2017-06-01T09:31:06.005Z,31.38
2017-06-01T09:32:15.328Z,31.38
2017-06-01T09:33:25.285Z,31.01
2017-06-01T09:34:35.555Z,31.87
2017-06-01T09:35:45.817Z,34.93
2017-06-01T09:36:56.086Z,34.45
2017-06-01T09:38:06.051Z,34.83
2017-06-01T09:39:15.694Z,34.16
2017-06-01T09:40:25.338Z,33.78
2017-06-01T09:41:35.601Z,32.82
2017-06-01T09:42:45.552Z,34.36
2017-06-01T09:43:55.821Z,33.69
2017-06-01T09:45:06.092Z,32.54
2017-06-01T09:46:15.728Z,35.02
2017-06-01T09:47:25.686Z,34.45
2017-06-01T09:48:35.961Z,33.61
2017-06-01T09:49:46.226Z,33.22
2017-06-01T09:50:56.232Z,30.73
2017-06-01T09:52:05.872Z,30.44
2017-06-01T09:53:16.138Z,29.47
2017-06-01T09:54:25.781Z,31.1
2017-06-01T09:55:36.047Z,31.87
2017-06-01T09:56:46.311Z,31.47
2017-06-01T09:57:56.787Z,32.14
2017-06-01T09:59:07.060Z,31.37
2017-06-01T10:00:17.330Z,31.37
2017-06-01T10:01:27.283Z,31.37
2017-06-01T10:02:37.241Z,30.61
2017-06-01T10:03:46.885Z,33
2017-06-01T10:04:57.160Z,32.42
2017-06-01T10:06:07.421Z,33.19
2017-06-01T10:07:17.065Z,33.86
2017-06-01T10:08:27.027Z,34.14
2017-06-01T10:09:37.298Z,34.43
2017-06-01T10:10:47.571Z,33.28
2017-06-01T10:11:57.521Z,33.4
2017-06-01T10:13:07.794Z,33.4
2017-06-01T10:14:17.765Z,34.36
2017-06-01T10:15:27.721Z,35.41
2017-06-01T10:16:37.675Z,34.18
2017-06-01T10:17:47.011Z,33.41
2017-06-01T10:18:57.277Z,32.75
2017-06-01T10:20:06.920Z,34.28
2017-06-01T10:21:17.191Z,32.93
2017-06-01T10:22:26.831Z,31.4
2017-06-01T10:23:36.472Z,31.59
2017-06-01T10:24:46.813Z,34.37
2017-06-01T10:25:56.765Z,33.7
2017-06-01T10:27:07.031Z,33.22
2017-06-01T10:28:17.196Z,32.46
2017-06-01T10:29:27.146Z,33.99
2017-06-01T10:30:37.412Z,34.75
2017-06-01T10:31:47.113Z,32.09
2017-06-01T10:32:57.069Z,33.81
2017-06-01T10:34:07.330Z,34.39
2017-06-01T10:35:16.971Z,32.38
2017-06-01T10:36:27.243Z,31.51
2017-06-01T10:37:36.882Z,29.69
2017-06-01T10:38:46.536Z,29.68
2017-06-01T10:39:56.803Z,29.77
2017-06-01T10:41:06.752Z,31.29
2017-06-01T10:42:17.022Z,32.54
2017-06-01T10:43:27.288Z,31.69
2017-06-01T10:44:37.559Z,32.82
2017-06-01T10:45:47.844Z,33.78
2017-06-01T10:46:57.808Z,34.55
2017-06-01T10:48:07.761Z,34.16
2017-06-01T10:49:18.039Z,34.16
2017-06-01T10:50:27.687Z,36.08
2017-06-01T10:51:37.646Z,35.71
2017-06-01T10:52:47.915Z,35.61
2017-06-01T10:53:57.874Z,34.47
2017-06-01T10:55:07.829Z,35.42
2017-06-01T10:56:16.838Z,35.42
2017-06-01T10:57:27.110Z,35.04
2017-06-01T10:58:37.379Z,34.48
2017-06-01T10:59:47.644Z,33.81
2017-06-01T11:00:57.602Z,32.38
2017-06-01T11:02:07.558Z,32.86
2017-06-01T11:03:17.206Z,32.57
2017-06-01T11:04:27.159Z,32.36
2017-06-01T11:05:37.432Z,33.62
2017-06-01T11:06:47.704Z,33.81
2017-06-01T11:07:57.966Z,34.1
2017-06-01T11:09:08.231Z,34.77
2017-06-01T11:10:17.880Z,34.39
2017-06-01T11:11:27.521Z,35.06
2017-06-01T11:12:37.795Z,35.44
2017-06-01T11:13:48.069Z,34.87
2017-06-01T11:14:58.021Z,34.58
2017-06-01T11:16:07.972Z,34.48
2017-06-01T11:17:17.312Z,34.29
2017-06-01T11:18:27.568Z,33.72
2017-06-01T11:19:37.837Z,33.54
2017-06-01T11:20:48.106Z,33.16
2017-06-01T11:21:58.376Z,32.97
2017-06-01T11:23:08.040Z,34.31
2017-06-01T11:24:17.987Z,33.45
2017-06-01T11:25:27.938Z,34.02
2017-06-01T11:26:38.213Z,34.98
2017-06-01T11:27:47.859Z,34.41
2017-06-01T11:28:58.124Z,33.25
2017-06-01T11:30:08.085Z,33.73
2017-06-01T11:31:18.054Z,34.12
2017-06-01T11:32:28.314Z,34.59
2017-06-01T11:33:38.264Z,34.31
2017-06-01T11:34:48.217Z,32.1
2017-06-01T11:35:58.500Z,32.59
2017-06-01T11:37:08.520Z,33.43
2017-06-01T11:38:19.020Z,34.58
2017-06-01T11:39:29.365Z,34.29
2017-06-01T11:40:39.991Z,33.72
2017-06-01T11:41:49.937Z,34.1
2017-06-01T11:42:59.895Z,34.2
2017-06-01T11:44:09.844Z,34
2017-06-01T11:45:19.185Z,34.39
2017-06-01T11:46:29.453Z,34.58
2017-06-01T11:47:39.092Z,34.39
2017-06-01T11:48:49.421Z,35.63
2017-06-01T11:49:59.376Z,36.02
2017-06-01T11:51:09.022Z,36.11
2017-06-01T11:52:19.291Z,34.98
2017-06-01T11:53:29.562Z,34.59
2017-06-01T11:54:39.831Z,35.27
2017-06-01T11:55:49.788Z,34.41
2017-06-01T11:56:59.749Z,34.5
2017-06-01T11:58:09.722Z,34.5
2017-06-01T11:59:19.360Z,34.5
2017-06-01T12:00:29.313Z,34.42
2017-06-01T12:01:39.268Z,34.9
2017-06-01T12:02:49.227Z,33.94
2017-06-01T12:03:58.548Z,32.64
2017-06-01T12:05:08.817Z,30.65
2017-06-01T12:06:17.831Z,29.54
2017-06-01T12:07:28.097Z,27.34
2017-06-01T12:08:38.369Z,26.02
2017-06-01T12:09:48.017Z,26.12
2017-06-01T12:10:57.669Z,24.99
2017-06-01T12:12:07.637Z,24.92
2017-06-01T12:13:17.282Z,23.4
2017-06-01T12:14:27.254Z,21.58
2017-06-01T12:15:37.537Z,21.58
2017-06-01T12:16:47.809Z,21.58
2017-06-01T12:17:57.461Z,22.86
2017-06-01T12:19:07.428Z,22.02
2017-06-01T12:20:17.391Z,21.05
2017-06-01T12:21:27.674Z,18.35
2017-06-01T12:22:37.959Z,18.73
2017-06-01T12:23:47.932Z,19.28
2017-06-01T12:24:57.902Z,21.33
2017-06-01T12:26:07.871Z,20.76
2017-06-01T12:27:17.543Z,18.84
2017-06-01T12:28:27.515Z,18.37
2017-06-01T12:29:37.796Z,16.63
2017-06-01T12:30:47.779Z,17.69
2017-06-01T12:31:58.061Z,16.81
2017-06-01T12:33:08.400Z,18.94
2017-06-01T12:34:18.063Z,17.97
2017-06-01T12:35:27.722Z,17.31
2017-06-01T12:36:38.010Z,18.87
2017-06-01T12:37:47.673Z,18.11
2017-06-01T12:38:57.964Z,15.29
2017-06-01T12:40:07.942Z,18.19
2017-06-01T12:41:18.245Z,17.21
2017-06-01T12:42:28.219Z,16.95
2017-06-01T12:43:38.512Z,16.76
2017-06-01T12:44:48.800Z,15.02
2017-06-01T12:45:58.773Z,13.95
2017-06-01T12:47:08.432Z,14.72
2017-06-01T12:48:18.409Z,16.36
2017-06-01T12:49:28.383Z,17.03
2017-06-01T12:50:38.678Z,16.56
2017-06-01T12:51:48.651Z,17.21
2017-06-01T12:52:58.938Z,17.66
2017-06-01T12:54:09.222Z,18.23
2017-06-01T12:55:18.257Z,20.82
2017-06-01T12:56:28.545Z,21.67
2017-06-01T12:57:38.509Z,20.8
2017-06-01T12:58:48.791Z,21.19
2017-06-01T12:59:58.779Z,21.28
2017-06-01T13:01:09.070Z,20.7
2017-06-01T13:02:18.406Z,20.79
2017-06-01T13:03:28.056Z,21.47
2017-06-01T13:04:38.338Z,21.75
2017-06-01T13:05:48.620Z,21.07
2017-06-01T13:06:58.269Z,21.04
2017-06-01T13:08:08.547Z,21.82
2017-06-01T13:09:18.829Z,22.12
2017-06-01T13:10:29.103Z,22.02
2017-06-01T13:11:39.385Z,21.44
2017-06-01T13:12:48.407Z,20.8
2017-06-01T13:13:58.377Z,20.34
2017-06-01T13:15:08.043Z,18.12
2017-06-01T13:16:18.011Z,19.19
2017-06-01T13:17:27.979Z,21.12
2017-06-01T13:18:37.631Z,20.26
2017-06-01T13:19:47.925Z,18.43
2017-06-01T13:20:58.218Z,20.65
2017-06-01T13:22:08.186Z,19.01
2017-06-01T13:23:18.163Z,18.25
2017-06-01T13:24:28.130Z,16.52
2017-06-01T13:25:38.412Z,16.9
2017-06-01T13:26:48.387Z,18.93
2017-06-01T13:27:58.363Z,17.3
2017-06-01T13:29:08.341Z,17.9
2017-06-01T13:30:18.320Z,16.94
2017-06-01T13:31:28.604Z,15.78
2017-06-01T13:32:38.894Z,15.3
2017-06-01T13:33:48.871Z,15.11
2017-06-01T13:34:58.528Z,15.78
2017-06-01T13:36:08.500Z,14.72
2017-06-01T13:37:17.840Z,14.33
2017-06-01T13:38:28.122Z,14.42
2017-06-01T13:39:38.421Z,15.3
2017-06-01T13:40:48.395Z,14.92
2017-06-01T13:41:58.373Z,14.05
2017-06-01T13:43:08.344Z,14.16
2017-06-01T13:44:18.314Z,13.87
2017-06-01T13:45:27.973Z,13.39
2017-06-01T13:46:38.275Z,13.65
2017-06-01T13:47:48.560Z,14.71
2017-06-01T13:48:58.839Z,15.29
2017-06-01T13:50:08.492Z,15.88
2017-06-01T13:51:18.147Z,15.21
2017-06-01T13:52:28.433Z,15.03
2017-06-01T13:53:38.721Z,14.75
2017-06-01T13:54:48.380Z,13.29
2017-06-01T13:55:58.351Z,13.1
2017-06-01T13:57:08.638Z,14.73
2017-06-01T13:58:18.611Z,14.65
2017-06-01T13:59:28.900Z,13.87
2017-06-01T14:00:38.874Z,14.06
2017-06-01T14:01:48.838Z,14.75
2017-06-01T14:02:58.488Z,14.63
2017-06-01T14:04:08.460Z,14.34
2017-06-01T14:05:18.763Z,15.78
2017-06-01T14:06:29.047Z,14.39
2017-06-01T14:07:39.331Z,14.31
2017-06-01T14:08:48.990Z,15.28
2017-06-01T14:09:58.985Z,14.42
2017-06-01T14:11:08.642Z,15.77
2017-06-01T14:12:18.625Z,14.79
2017-06-01T14:13:28.286Z,16.14
2017-06-01T14:14:38.567Z,16.61
2017-06-01T14:15:48.546Z,15.75
2017-06-01T14:16:58.515Z,16.99
2017-06-01T14:18:08.488Z,16.99
2017-06-01T14:19:20.353Z,17.56
2017-06-01T14:20:30.035Z,17.56
2017-06-01T14:21:40.327Z,17.66
2017-06-01T14:22:50.304Z,17.58
2017-06-01T14:24:00.585Z,16.53
2017-06-01T14:25:10.556Z,16.53
2017-06-01T14:26:20.535Z,16.34
2017-06-01T14:27:30.513Z,17.18
2017-06-01T14:28:40.171Z,16.97
2017-06-01T14:29:50.457Z,16.58
2017-06-01T14:31:00.432Z,18.99
2017-06-01T14:32:10.717Z,18.31
2017-06-01T14:33:21.004Z,17.25
2017-06-01T14:34:30.977Z,15.8
2017-06-01T14:35:40.950Z,17.26
2017-06-01T14:36:50.927Z,16.98
2017-06-01T14:38:01.214Z,17.18
2017-06-01T14:39:11.500Z,15.92
2017-06-01T14:40:21.789Z,16.89
2017-06-01T14:41:32.074Z,16.99
2017-06-01T14:42:42.046Z,15.94
2017-06-01T14:43:52.011Z,15.94
2017-06-01T14:45:02.003Z,16.61
2017-06-01T14:46:11.970Z,16.62
2017-06-01T14:47:22.250Z,16.99
2017-06-01T14:48:32.285Z,17.19
2017-06-01T14:49:41.950Z,16.12
2017-06-01T14:50:52.233Z,15.45
2017-06-01T14:52:01.889Z,16.91
2017-06-01T14:53:12.187Z,15.17
2017-06-01T14:54:22.164Z,16.9
2017-06-01T14:55:32.452Z,17.76
2017-06-01T14:56:42.432Z,18.25
2017-06-01T14:57:52.723Z,17.55
2017-06-01T14:59:02.694Z,18.32
2017-06-01T15:00:12.669Z,17.66
2017-06-01T15:01:22.959Z,17.66
2017-06-01T15:02:32.932Z,17.68
2017-06-01T15:03:43.217Z,15.94